KMGY

Details ICAO KMGY (MGY)
Name DAYTON WRIGHT BROTHERS
Region United States
Timezone America/New_York (UTC-5.0)
Plans Departing 20
Arriving 9
Stats Elevation 957 ft / 292 m (AMSL)
Location 39.588961° -84.224856°
Runways 1
Magnetic Variation 6.151° W
Sunrise 2017-12-11 12:49:02 UTC / 2017-12-11 07:49:02 Local
Sunset 2017-12-11 22:14:23 UTC / 2017-12-11 17:14:23 Local
Advertisement - Login to hide

Runways

ID Width Length Bearing (true) Bearing (mag) Surface Threshold Offset Overrun Length
02 98 ft / 30 m 5,006 ft / 1,526 m 22.15° 28.30° Asphalt 0 ft / 0 m 0 ft / 0 m
20 98 ft / 30 m 5,006 ft / 1,526 m 202.15° 208.30° Asphalt 591 ft / 180 m 0 ft / 0 m

Approach Navaids

Runway Type Ident Frequency Range Bearing (true) Bearing (mag) Slope Elevation
20 Localiser IMGY 109.50 MHz 18 nm / 33 km 202.14° 208.29° - 957 ft / 292 m (AMSL)
20 DME IMGY 109.50 MHz 18 nm / 33 km - - - 957 ft / 292 m (AMSL)

Map

Weather


0- 5 10 15 20 25 30 35+ Temperature / ° C

Clouds and Precipitation
Forecast for 2017-12-11 18:00 UTC. Updated 13 minutes ago

Ground ~20,000 ft ~40,000 ft Winds

METAR

KMGY 111653Z AUTO 19012KT 10SM CLR 02/M03 A2996 RMK AO2 SLP153 T00171033

TAF

Not found

Frequencies

Recorded 118.37 MHz ASOS
Clearance 119.40 MHz CLNC DEL
Departure 126.50 MHz DEP
Unicom 122.80 MHz CTAF/UNICOM
Approach 118.85 MHz APP
Warning: Do not use this data for real-world aviation or navigation. No guarantee of current accuracy is given.